createdAt,value
2022-10-30T00:00:05.308Z,14.27
2022-10-30T00:01:09.777Z,14.26
2022-10-30T00:02:14.273Z,14.24
2022-10-30T00:03:18.504Z,14.22
2022-10-30T00:04:22.635Z,14.20
2022-10-30T00:05:27.043Z,14.19
2022-10-30T00:06:31.260Z,14.16
2022-10-30T00:07:35.754Z,14.14
2022-10-30T00:08:39.997Z,14.12
2022-10-30T00:09:44.318Z,14.10
2022-10-30T00:10:48.759Z,14.08
2022-10-30T00:11:52.989Z,14.07
2022-10-30T00:12:57.394Z,14.05
2022-10-30T00:14:01.728Z,14.03
2022-10-30T00:15:06.008Z,14.02
2022-10-30T00:16:10.272Z,14.00
2022-10-30T00:17:14.665Z,13.99
2022-10-30T00:18:19.071Z,13.99
2022-10-30T00:19:23.456Z,13.98
2022-10-30T00:20:27.734Z,13.98
2022-10-30T00:21:32.114Z,13.98
2022-10-30T00:22:36.386Z,13.97
2022-10-30T00:23:40.828Z,13.97
2022-10-30T00:24:45.047Z,13.96
2022-10-30T00:25:49.345Z,13.94
2022-10-30T00:26:53.829Z,13.93
2022-10-30T00:27:58.106Z,13.91
2022-10-30T00:29:02.478Z,13.90
2022-10-30T00:30:06.745Z,13.88
2022-10-30T00:31:11.121Z,13.87
2022-10-30T00:32:15.494Z,13.86
2022-10-30T00:33:19.812Z,13.86
2022-10-30T00:34:24.011Z,13.85
2022-10-30T00:35:28.507Z,13.85
2022-10-30T00:36:32.726Z,13.86
2022-10-30T00:37:37.156Z,13.85
2022-10-30T00:38:41.549Z,13.85
2022-10-30T00:39:45.775Z,13.84
2022-10-30T00:40:50.248Z,13.83
2022-10-30T00:41:54.537Z,13.81
2022-10-30T00:42:58.780Z,13.80
2022-10-30T00:44:03.261Z,13.78
2022-10-30T00:45:07.455Z,13.76
2022-10-30T00:46:11.761Z,13.75
2022-10-30T00:47:16.132Z,13.74
2022-10-30T00:48:20.433Z,13.73
2022-10-30T00:49:24.814Z,13.72
2022-10-30T00:50:29.240Z,13.70
2022-10-30T00:51:33.504Z,13.68
2022-10-30T00:52:37.870Z,13.67
2022-10-30T00:53:42.160Z,13.65
2022-10-30T00:54:46.486Z,13.64
2022-10-30T00:55:50.734Z,13.62
2022-10-30T00:56:55.145Z,13.61
2022-10-30T00:57:59.409Z,13.61
2022-10-30T00:59:03.690Z,13.61
2022-10-30T01:00:08.043Z,13.61
2022-10-30T01:01:12.580Z,13.63
2022-10-30T01:02:16.955Z,13.63
2022-10-30T01:03:20.921Z,13.64
2022-10-30T01:04:29.065Z,13.65
2022-10-30T01:05:29.553Z,13.66
2022-10-30T01:06:33.862Z,13.66
2022-10-30T01:07:38.274Z,13.67
2022-10-30T01:08:42.687Z,13.68
2022-10-30T01:09:46.989Z,13.68
2022-10-30T01:10:51.221Z,13.69
2022-10-30T01:11:55.572Z,13.69
2022-10-30T01:13:00.001Z,13.69
2022-10-30T01:14:04.244Z,13.69
2022-10-30T01:15:08.508Z,13.68
2022-10-30T01:16:12.845Z,13.67
2022-10-30T01:17:17.207Z,13.66
2022-10-30T01:18:21.468Z,13.66
2022-10-30T01:19:25.775Z,13.66
2022-10-30T01:20:30.157Z,13.66
2022-10-30T01:21:34.614Z,13.66
2022-10-30T01:22:38.905Z,13.67
2022-10-30T01:23:43.307Z,13.68
2022-10-30T01:24:47.638Z,13.69
2022-10-30T01:25:52.076Z,13.69
2022-10-30T01:26:56.360Z,13.69
2022-10-30T01:28:00.626Z,13.69
2022-10-30T01:29:05.091Z,13.73
2022-10-30T01:30:09.366Z,13.78
2022-10-30T01:31:13.772Z,13.83
2022-10-30T01:32:18.015Z,13.85
2022-10-30T01:33:22.383Z,13.87
2022-10-30T01:34:26.729Z,13.89
2022-10-30T01:35:31.084Z,13.91
2022-10-30T01:36:35.401Z,13.93
2022-10-30T01:37:39.752Z,13.94
2022-10-30T01:38:44.220Z,13.95
2022-10-30T01:39:48.481Z,13.96
2022-10-30T01:40:52.874Z,13.96
2022-10-30T01:41:57.278Z,13.95
2022-10-30T01:43:01.615Z,13.93
2022-10-30T01:44:05.927Z,13.89
2022-10-30T01:45:10.253Z,13.84
2022-10-30T01:46:14.685Z,13.78
2022-10-30T01:47:18.976Z,13.72
2022-10-30T01:48:23.417Z,13.66
2022-10-30T01:49:27.819Z,13.61
2022-10-30T01:50:32.203Z,13.57
2022-10-30T01:51:36.565Z,13.54
2022-10-30T01:52:40.814Z,13.52
2022-10-30T01:53:45.164Z,13.49
2022-10-30T01:54:49.545Z,13.47
2022-10-30T01:55:53.911Z,13.47
2022-10-30T01:56:58.289Z,13.48
2022-10-30T01:58:02.497Z,13.50
2022-10-30T01:59:06.779Z,13.52
2022-10-30T02:00:11.103Z,13.53
2022-10-30T02:01:15.708Z,13.54
2022-10-30T02:02:20.026Z,13.56
2022-10-30T02:03:24.331Z,13.57
2022-10-30T02:04:28.589Z,13.59
2022-10-30T02:05:32.929Z,13.60
2022-10-30T02:06:37.255Z,13.60
2022-10-30T02:07:41.584Z,13.61
2022-10-30T02:08:45.940Z,13.60
2022-10-30T02:09:50.351Z,13.60
2022-10-30T02:10:54.659Z,13.61
2022-10-30T02:11:58.902Z,13.61
2022-10-30T02:13:03.283Z,13.62
2022-10-30T02:14:07.642Z,13.62
2022-10-30T02:15:11.923Z,13.63
2022-10-30T02:16:16.194Z,13.63
2022-10-30T02:17:21.561Z,13.64
2022-10-30T02:18:26.443Z,13.65
2022-10-30T02:19:30.495Z,13.66
2022-10-30T02:20:34.786Z,13.66
2022-10-30T02:21:39.115Z,13.65
2022-10-30T02:22:43.609Z,13.64
2022-10-30T02:23:47.834Z,13.62
2022-10-30T02:24:52.264Z,13.60
2022-10-30T02:25:56.566Z,13.59
2022-10-30T02:27:00.966Z,13.57
2022-10-30T02:28:05.285Z,13.56
2022-10-30T02:29:09.579Z,13.55
2022-10-30T02:30:13.960Z,13.54
2022-10-30T02:31:18.190Z,13.53
2022-10-30T02:32:22.675Z,13.52
2022-10-30T02:33:26.965Z,13.50
2022-10-30T02:34:31.447Z,13.49
2022-10-30T02:35:38.631Z,13.48
2022-10-30T02:36:42.081Z,13.46
2022-10-30T02:37:46.477Z,13.43
2022-10-30T02:38:50.600Z,13.42
2022-10-30T02:39:54.964Z,13.39
2022-10-30T02:40:59.253Z,13.37
2022-10-30T02:42:03.585Z,13.35
2022-10-30T02:43:08.027Z,13.34
2022-10-30T02:44:12.411Z,13.33
2022-10-30T02:45:16.717Z,13.32
2022-10-30T02:46:21.037Z,13.32
2022-10-30T02:47:25.307Z,13.32
2022-10-30T02:48:29.698Z,13.32
2022-10-30T02:49:33.951Z,13.30
2022-10-30T02:50:38.390Z,13.29
2022-10-30T02:51:42.719Z,13.27
2022-10-30T02:52:46.993Z,13.25
2022-10-30T02:53:51.434Z,13.23
2022-10-30T02:54:55.647Z,13.22
2022-10-30T02:56:00.018Z,13.21
2022-10-30T02:57:04.466Z,13.20
2022-10-30T02:58:08.745Z,13.18
2022-10-30T02:59:13.186Z,13.16
2022-10-30T03:00:17.481Z,13.15
2022-10-30T03:01:22.051Z,13.13
2022-10-30T03:02:26.145Z,13.12
2022-10-30T03:03:30.459Z,13.10
2022-10-30T03:04:34.722Z,13.09
2022-10-30T03:05:39.175Z,13.06
2022-10-30T03:06:46.446Z,13.05
2022-10-30T03:07:49.842Z,13.03
2022-10-30T03:08:54.157Z,13.01
2022-10-30T03:09:58.627Z,12.98
2022-10-30T03:11:02.878Z,12.94
2022-10-30T03:12:07.189Z,12.90
2022-10-30T03:13:11.413Z,12.88
2022-10-30T03:14:15.746Z,12.86
2022-10-30T03:15:20.084Z,12.84
2022-10-30T03:16:24.411Z,12.83
2022-10-30T03:17:28.838Z,12.83
2022-10-30T03:18:33.000Z,12.82
2022-10-30T03:19:37.337Z,12.79
2022-10-30T03:20:41.583Z,12.75
2022-10-30T03:21:45.933Z,12.75
2022-10-30T03:22:50.161Z,12.72
2022-10-30T03:23:54.540Z,12.70
2022-10-30T03:24:58.867Z,12.67
2022-10-30T03:26:03.196Z,12.66
2022-10-30T03:27:07.529Z,12.63
2022-10-30T03:28:11.773Z,12.61
2022-10-30T03:29:16.173Z,12.61
2022-10-30T03:30:20.419Z,12.61
2022-10-30T03:31:24.697Z,12.62
2022-10-30T03:32:28.963Z,12.65
2022-10-30T03:33:33.380Z,12.66
2022-10-30T03:34:37.671Z,12.68
2022-10-30T03:35:41.961Z,12.70
2022-10-30T03:36:49.252Z,12.73
2022-10-30T03:37:52.597Z,12.75
2022-10-30T03:38:56.921Z,12.75
2022-10-30T03:40:01.214Z,12.75
2022-10-30T03:41:05.514Z,12.74
2022-10-30T03:42:09.929Z,12.74
2022-10-30T03:43:14.198Z,12.74
2022-10-30T03:44:18.450Z,12.74
2022-10-30T03:45:22.769Z,12.74
2022-10-30T03:46:27.077Z,12.74
2022-10-30T03:47:31.459Z,12.75
2022-10-30T03:48:35.653Z,12.74
2022-10-30T03:49:39.948Z,12.75
2022-10-30T03:50:44.293Z,12.76
2022-10-30T03:51:48.529Z,12.77
2022-10-30T03:52:52.844Z,12.77
2022-10-30T03:53:57.109Z,12.78
2022-10-30T03:55:01.393Z,12.79
2022-10-30T03:56:08.660Z,12.80
2022-10-30T03:57:12.041Z,12.82
2022-10-30T03:58:16.391Z,12.83
2022-10-30T03:59:20.629Z,12.84
2022-10-30T04:00:24.936Z,12.86
2022-10-30T04:01:29.362Z,12.87
2022-10-30T04:02:33.501Z,12.88
2022-10-30T04:03:37.767Z,12.90
2022-10-30T04:04:42.078Z,12.90
2022-10-30T04:05:46.406Z,12.89
2022-10-30T04:06:50.618Z,12.89
2022-10-30T04:07:54.866Z,12.88
2022-10-30T04:08:59.259Z,12.88
2022-10-30T04:10:03.563Z,12.87
2022-10-30T04:11:07.867Z,12.86
2022-10-30T04:12:12.151Z,12.84
2022-10-30T04:13:16.487Z,12.83
2022-10-30T04:14:20.734Z,12.81
2022-10-30T04:15:25.002Z,12.80
2022-10-30T04:16:29.269Z,12.76
2022-10-30T04:17:33.577Z,12.73
2022-10-30T04:18:37.855Z,12.71
2022-10-30T04:19:42.194Z,12.69
2022-10-30T04:20:46.494Z,12.67
2022-10-30T04:21:50.778Z,12.65
2022-10-30T04:22:55.037Z,12.64
2022-10-30T04:23:59.395Z,12.63
2022-10-30T04:25:03.575Z,12.62
2022-10-30T04:26:07.947Z,12.61
2022-10-30T04:27:12.238Z,12.60
2022-10-30T04:28:16.488Z,12.59
2022-10-30T04:29:20.896Z,12.58
2022-10-30T04:30:25.221Z,12.58
2022-10-30T04:31:29.448Z,12.58
2022-10-30T04:32:33.626Z,12.58
2022-10-30T04:33:37.851Z,12.59
2022-10-30T04:34:42.203Z,12.59
2022-10-30T04:35:46.476Z,12.59
2022-10-30T04:36:50.842Z,12.60
2022-10-30T04:37:55.104Z,12.61
2022-10-30T04:38:59.384Z,12.61
2022-10-30T04:40:03.700Z,12.62
2022-10-30T04:41:07.993Z,12.62
2022-10-30T04:42:12.158Z,12.63
2022-10-30T04:43:16.568Z,12.63
2022-10-30T04:44:20.835Z,12.63
2022-10-30T04:45:25.110Z,12.63
2022-10-30T04:46:29.463Z,12.63
2022-10-30T04:48:38.061Z,12.65
2022-10-30T04:49:42.284Z,12.65
2022-10-30T04:50:46.598Z,12.65
2022-10-30T04:51:50.815Z,12.65
2022-10-30T04:52:55.145Z,12.65
2022-10-30T04:53:59.439Z,12.65
2022-10-30T04:55:03.717Z,12.64
2022-10-30T04:56:07.995Z,12.64
2022-10-30T04:57:12.394Z,12.64
2022-10-30T04:58:16.645Z,12.64
2022-10-30T04:59:20.808Z,12.64
2022-10-30T05:00:25.154Z,12.63
2022-10-30T05:01:29.663Z,12.63
2022-10-30T05:02:33.935Z,12.62
2022-10-30T05:03:38.041Z,12.62
2022-10-30T05:04:42.365Z,12.62
2022-10-30T05:05:46.639Z,12.62
2022-10-30T05:06:50.935Z,12.63
2022-10-30T05:07:55.611Z,12.63
2022-10-30T05:08:59.566Z,12.64
2022-10-30T05:10:03.886Z,12.64
2022-10-30T05:11:08.109Z,12.64
2022-10-30T05:12:12.421Z,12.64
2022-10-30T05:13:16.701Z,12.64
2022-10-30T05:14:20.968Z,12.63
2022-10-30T05:15:25.138Z,12.63
2022-10-30T05:16:29.462Z,12.63
2022-10-30T05:17:33.692Z,12.63
2022-10-30T05:18:37.988Z,12.62
2022-10-30T05:19:42.274Z,12.61
2022-10-30T05:20:46.520Z,12.61
2022-10-30T05:21:50.810Z,12.61
2022-10-30T05:22:55.015Z,12.61
2022-10-30T05:23:59.273Z,12.61
2022-10-30T05:25:03.578Z,12.61
2022-10-30T05:26:07.940Z,12.60
2022-10-30T05:27:12.126Z,12.60
2022-10-30T05:28:16.446Z,12.60
2022-10-30T05:29:20.776Z,12.60
2022-10-30T05:30:25.018Z,12.61
2022-10-30T05:31:29.372Z,12.61
2022-10-30T05:32:33.715Z,12.61
2022-10-30T05:33:38.060Z,12.62
2022-10-30T05:34:42.267Z,12.64
2022-10-30T05:35:46.560Z,12.66
2022-10-30T05:36:50.844Z,12.67
2022-10-30T05:37:55.111Z,12.68
2022-10-30T05:38:59.407Z,12.69
2022-10-30T05:40:03.731Z,12.70
2022-10-30T05:41:07.974Z,12.70
2022-10-30T05:42:13.846Z,12.70
2022-10-30T05:43:16.503Z,12.70
2022-10-30T05:44:29.166Z,12.71
2022-10-30T05:45:25.071Z,12.73
2022-10-30T05:46:29.352Z,12.73
2022-10-30T05:47:33.597Z,12.72
2022-10-30T05:48:37.872Z,12.70
2022-10-30T05:49:42.172Z,12.67
2022-10-30T05:50:46.386Z,12.65
2022-10-30T05:51:50.699Z,12.62
2022-10-30T05:52:54.970Z,12.60
2022-10-30T05:53:59.254Z,12.59
2022-10-30T05:55:03.525Z,12.59
2022-10-30T05:56:07.688Z,12.58
2022-10-30T05:57:12.128Z,12.57
2022-10-30T05:58:16.425Z,12.58
2022-10-30T05:59:20.780Z,12.59
2022-10-30T06:00:25.019Z,12.60
2022-10-30T06:01:29.551Z,12.62
2022-10-30T06:02:33.682Z,12.64
2022-10-30T06:03:51.939Z,12.64
2022-10-30T06:04:55.018Z,12.64
2022-10-30T06:05:59.241Z,12.66
2022-10-30T06:07:03.496Z,12.66
2022-10-30T06:08:07.828Z,12.66
2022-10-30T06:09:12.053Z,12.66
2022-10-30T06:10:16.314Z,12.65
2022-10-30T06:11:20.606Z,12.65
2022-10-30T06:12:24.968Z,12.64
2022-10-30T06:13:29.217Z,12.63
2022-10-30T06:14:33.456Z,12.61
2022-10-30T06:15:37.829Z,12.60
2022-10-30T06:16:42.052Z,12.59
2022-10-30T06:17:46.316Z,12.59
2022-10-30T06:18:50.642Z,12.60
2022-10-30T06:19:54.921Z,12.61
2022-10-30T06:20:59.212Z,12.62
2022-10-30T06:22:03.499Z,12.64
2022-10-30T06:23:07.752Z,12.65
2022-10-30T06:24:12.031Z,12.67
2022-10-30T06:25:19.404Z,12.69
2022-10-30T06:26:22.807Z,12.70
2022-10-30T06:27:27.006Z,12.71
2022-10-30T06:28:31.335Z,12.73
2022-10-30T06:29:35.570Z,12.75
2022-10-30T06:30:39.875Z,12.76
2022-10-30T06:31:44.133Z,12.79
2022-10-30T06:32:48.425Z,12.80
2022-10-30T06:33:52.669Z,12.82
2022-10-30T06:34:57.019Z,12.83
2022-10-30T06:36:01.352Z,12.86
2022-10-30T06:37:05.653Z,12.87
2022-10-30T06:38:09.899Z,12.88
2022-10-30T06:39:14.185Z,12.90
2022-10-30T06:40:18.516Z,12.91
2022-10-30T06:41:26.082Z,12.92
2022-10-30T06:42:27.068Z,12.94
2022-10-30T06:43:31.316Z,12.95
2022-10-30T06:44:35.673Z,12.98
2022-10-30T06:45:39.972Z,13.00
2022-10-30T06:46:44.177Z,13.02
2022-10-30T06:47:48.540Z,13.04
2022-10-30T06:48:52.778Z,13.06
2022-10-30T06:49:57.076Z,13.07
2022-10-30T06:51:01.387Z,13.08
2022-10-30T06:52:05.633Z,13.09
2022-10-30T06:53:09.988Z,13.10
2022-10-30T06:54:14.295Z,13.11
2022-10-30T06:55:18.555Z,13.12
2022-10-30T06:56:22.870Z,13.14
2022-10-30T06:57:27.145Z,13.15
2022-10-30T06:58:31.501Z,13.15
2022-10-30T06:59:35.762Z,13.17
2022-10-30T07:00:40.150Z,13.19
2022-10-30T07:01:44.464Z,13.20
2022-10-30T07:02:48.640Z,13.22
2022-10-30T07:03:52.950Z,13.26
2022-10-30T07:04:57.353Z,13.29
2022-10-30T07:06:01.595Z,13.33
2022-10-30T07:07:05.882Z,13.36
2022-10-30T07:08:10.174Z,13.40
2022-10-30T07:09:14.571Z,13.44
2022-10-30T07:10:18.818Z,13.46
2022-10-30T07:11:23.077Z,13.50
2022-10-30T07:12:27.373Z,13.53
2022-10-30T07:13:31.702Z,13.56
2022-10-30T07:14:35.998Z,13.60
2022-10-30T07:15:40.293Z,13.63
2022-10-30T07:16:44.675Z,13.66
2022-10-30T07:17:48.853Z,13.68
2022-10-30T07:18:53.145Z,13.72
2022-10-30T07:19:57.412Z,13.75
2022-10-30T07:21:01.752Z,13.78
2022-10-30T07:22:06.141Z,13.82
2022-10-30T07:23:10.371Z,13.85
2022-10-30T07:24:14.750Z,13.88
2022-10-30T07:25:18.975Z,13.91
2022-10-30T07:26:23.349Z,13.93
2022-10-30T07:27:27.676Z,13.96
2022-10-30T07:28:31.902Z,13.99
2022-10-30T07:29:36.166Z,14.02
2022-10-30T07:30:40.570Z,14.05
2022-10-30T07:31:57.774Z,14.08
2022-10-30T07:32:49.285Z,14.10
2022-10-30T07:33:53.442Z,14.13
2022-10-30T07:34:57.834Z,14.15
2022-10-30T07:36:02.122Z,14.17
2022-10-30T07:37:06.433Z,14.19
2022-10-30T07:38:10.699Z,14.21
2022-10-30T07:39:14.988Z,14.23
2022-10-30T07:40:19.403Z,14.25
2022-10-30T07:41:23.690Z,14.26
2022-10-30T07:42:27.915Z,14.27
2022-10-30T07:43:32.297Z,14.29
2022-10-30T07:44:36.597Z,14.30
2022-10-30T07:45:40.857Z,14.31
2022-10-30T07:46:48.162Z,14.33
2022-10-30T07:47:51.547Z,14.35
2022-10-30T07:48:55.860Z,14.37
2022-10-30T07:50:00.166Z,14.39
2022-10-30T07:51:04.471Z,14.41
2022-10-30T07:52:11.864Z,14.43
2022-10-30T07:53:13.159Z,14.45
2022-10-30T07:54:17.518Z,14.47
2022-10-30T07:55:21.801Z,14.49
2022-10-30T07:56:26.136Z,14.51
2022-10-30T07:57:30.415Z,14.53
2022-10-30T07:58:34.679Z,14.55
2022-10-30T07:59:39.166Z,14.58
2022-10-30T08:00:43.340Z,14.60
2022-10-30T08:01:47.764Z,14.62
2022-10-30T08:02:51.969Z,14.64
2022-10-30T08:03:56.212Z,14.66
2022-10-30T08:05:00.594Z,14.69
2022-10-30T08:06:04.906Z,14.71
2022-10-30T08:07:09.150Z,14.73
2022-10-30T08:08:13.460Z,14.75
2022-10-30T08:09:17.821Z,14.77
2022-10-30T08:10:22.042Z,14.78
2022-10-30T08:11:26.348Z,14.79
2022-10-30T08:12:30.655Z,14.81
2022-10-30T08:13:34.939Z,14.82
2022-10-30T08:14:39.224Z,14.84
2022-10-30T08:15:43.618Z,14.85
2022-10-30T08:16:47.870Z,14.87
2022-10-30T08:17:52.199Z,14.88
2022-10-30T08:18:56.450Z,14.90
2022-10-30T08:20:00.762Z,14.91
2022-10-30T08:21:05.105Z,14.93
2022-10-30T08:22:09.506Z,14.94
2022-10-30T08:23:13.867Z,14.96
2022-10-30T08:24:18.195Z,14.99
2022-10-30T08:25:22.538Z,15.00
2022-10-30T08:26:26.794Z,15.03
2022-10-30T08:27:31.096Z,15.05
2022-10-30T08:28:35.391Z,15.08
2022-10-30T08:29:39.755Z,15.10
2022-10-30T08:30:43.991Z,15.12
2022-10-30T08:31:48.332Z,15.15
2022-10-30T08:32:52.624Z,15.17
2022-10-30T08:33:56.922Z,15.19
2022-10-30T08:35:01.300Z,15.21
2022-10-30T08:36:05.568Z,15.23
2022-10-30T08:37:09.904Z,15.25
2022-10-30T08:38:14.142Z,15.27
2022-10-30T08:39:18.500Z,15.29
2022-10-30T08:40:22.957Z,15.31
2022-10-30T08:41:27.174Z,15.33
2022-10-30T08:42:31.560Z,15.36
2022-10-30T08:43:35.860Z,15.38
2022-10-30T08:44:40.153Z,15.40
2022-10-30T08:45:44.549Z,15.43
2022-10-30T08:46:48.782Z,15.46
2022-10-30T08:47:56.528Z,15.49
2022-10-30T08:48:59.511Z,15.51
2022-10-30T08:50:03.816Z,15.54
2022-10-30T08:51:08.114Z,15.56
2022-10-30T08:52:12.501Z,15.58
2022-10-30T08:53:16.733Z,15.61
2022-10-30T08:54:21.007Z,15.64
2022-10-30T08:55:25.304Z,15.66
2022-10-30T08:56:29.690Z,15.69
2022-10-30T08:57:33.896Z,15.71
2022-10-30T08:58:38.330Z,15.73
2022-10-30T08:59:42.602Z,15.75
2022-10-30T09:00:46.884Z,15.77
2022-10-30T09:01:51.496Z,15.79
2022-10-30T09:02:55.982Z,15.81
2022-10-30T09:03:59.820Z,15.83
2022-10-30T09:06:08.413Z,15.86
2022-10-30T09:07:13.173Z,15.88
2022-10-30T09:08:17.256Z,15.90
2022-10-30T09:09:21.480Z,15.92
2022-10-30T09:10:25.812Z,15.94
2022-10-30T09:11:30.097Z,15.97
2022-10-30T09:12:34.403Z,15.99
2022-10-30T09:13:38.746Z,16.02
2022-10-30T09:14:43.080Z,16.05
2022-10-30T09:15:47.506Z,16.07
2022-10-30T09:16:51.741Z,16.10
2022-10-30T09:17:56.483Z,16.12
2022-10-30T09:19:00.349Z,16.14
2022-10-30T09:20:04.686Z,16.17
2022-10-30T09:21:09.000Z,16.19
2022-10-30T09:22:13.321Z,16.21
2022-10-30T09:23:17.658Z,16.23
2022-10-30T09:24:22.086Z,16.25
2022-10-30T09:25:26.336Z,16.27
2022-10-30T09:26:30.609Z,16.28
2022-10-30T09:27:34.993Z,16.30
2022-10-30T09:28:39.285Z,16.31
2022-10-30T09:29:43.673Z,16.33
2022-10-30T09:30:47.967Z,16.35
2022-10-30T09:31:52.329Z,16.36
2022-10-30T09:32:57.113Z,16.38
2022-10-30T09:34:00.987Z,16.39
2022-10-30T09:35:05.284Z,16.41
2022-10-30T09:36:09.649Z,16.42
2022-10-30T09:37:16.950Z,16.44
2022-10-30T09:38:20.535Z,16.46
2022-10-30T09:39:24.874Z,16.48
2022-10-30T09:40:29.191Z,16.49
2022-10-30T09:41:33.547Z,16.51
2022-10-30T09:42:37.888Z,16.52
2022-10-30T09:43:42.330Z,16.54
2022-10-30T09:44:56.537Z,16.55
2022-10-30T09:45:51.040Z,16.56
2022-10-30T09:46:55.385Z,16.57
2022-10-30T09:48:00.215Z,16.58
2022-10-30T09:49:04.182Z,16.60
2022-10-30T09:50:08.465Z,16.60
2022-10-30T09:51:12.858Z,16.61
2022-10-30T09:52:17.203Z,16.62
2022-10-30T09:53:21.484Z,16.62
2022-10-30T09:54:25.997Z,16.63
2022-10-30T09:55:30.440Z,16.63
2022-10-30T09:56:34.716Z,16.64
2022-10-30T09:57:39.145Z,16.65
2022-10-30T09:58:43.578Z,16.66
2022-10-30T09:59:47.889Z,16.66
2022-10-30T10:00:52.405Z,16.67
2022-10-30T10:01:56.817Z,16.68
2022-10-30T10:03:01.643Z,16.69
2022-10-30T10:04:05.388Z,16.70
2022-10-30T10:05:09.734Z,16.70
2022-10-30T10:06:14.203Z,16.71
2022-10-30T10:07:18.503Z,16.71
2022-10-30T10:08:22.879Z,16.72
2022-10-30T10:09:27.346Z,16.73
2022-10-30T10:10:31.774Z,16.74
2022-10-30T10:11:36.344Z,16.75
2022-10-30T10:12:40.689Z,16.75
2022-10-30T10:13:45.001Z,16.75
2022-10-30T10:14:49.380Z,16.76
2022-10-30T10:15:53.837Z,16.77
2022-10-30T10:16:58.267Z,16.78
2022-10-30T10:18:02.587Z,16.79
2022-10-30T10:19:07.059Z,16.80
2022-10-30T10:20:11.372Z,16.82
2022-10-30T10:21:15.864Z,16.84
2022-10-30T10:22:20.277Z,16.86
2022-10-30T10:23:24.626Z,16.88
2022-10-30T10:24:29.084Z,16.91
2022-10-30T10:25:33.385Z,16.93
2022-10-30T10:26:37.761Z,16.95
2022-10-30T10:27:42.098Z,16.97
2022-10-30T10:28:46.450Z,17.00
2022-10-30T10:29:50.793Z,17.02
2022-10-30T10:30:55.183Z,17.05
2022-10-30T10:31:59.540Z,17.06
2022-10-30T10:33:04.025Z,17.08
2022-10-30T10:34:08.374Z,17.10
2022-10-30T10:35:12.739Z,17.11
2022-10-30T10:36:17.130Z,17.12
2022-10-30T10:37:21.582Z,17.13
2022-10-30T10:38:25.892Z,17.14
2022-10-30T10:39:30.280Z,17.16
2022-10-30T10:40:34.681Z,17.17
2022-10-30T10:41:39.015Z,17.18
2022-10-30T10:42:43.357Z,17.20
2022-10-30T10:43:47.761Z,17.22
2022-10-30T10:44:52.107Z,17.23
2022-10-30T10:45:56.463Z,17.25
2022-10-30T10:47:06.026Z,17.26
2022-10-30T10:48:05.222Z,17.27
2022-10-30T10:49:09.631Z,17.28
2022-10-30T10:50:13.953Z,17.28
2022-10-30T10:51:18.305Z,17.28
2022-10-30T10:52:22.690Z,17.27
2022-10-30T10:53:27.027Z,17.27
2022-10-30T10:54:31.369Z,17.25
2022-10-30T10:55:35.802Z,17.24
2022-10-30T10:56:40.122Z,17.23
2022-10-30T10:57:44.550Z,17.23
2022-10-30T10:58:48.878Z,17.24
2022-10-30T10:59:53.387Z,17.26
2022-10-30T11:00:57.796Z,17.27
2022-10-30T11:02:02.174Z,17.27
2022-10-30T11:03:06.501Z,17.28
2022-10-30T11:04:10.750Z,17.30
2022-10-30T11:05:15.111Z,17.32
2022-10-30T11:06:19.608Z,17.35
2022-10-30T11:07:24.010Z,17.37
2022-10-30T11:08:28.314Z,17.40
2022-10-30T11:09:32.666Z,17.43
2022-10-30T11:10:37.137Z,17.44
2022-10-30T11:11:41.489Z,17.46
2022-10-30T11:12:45.938Z,17.47
2022-10-30T11:13:50.280Z,17.47
2022-10-30T11:14:54.630Z,17.47
2022-10-30T11:15:59.179Z,17.47
2022-10-30T11:17:03.492Z,17.47
2022-10-30T11:18:08.001Z,17.46
2022-10-30T11:19:12.314Z,17.47
2022-10-30T11:20:16.700Z,17.48
2022-10-30T11:21:21.069Z,17.52
2022-10-30T11:22:25.534Z,17.57
2022-10-30T11:23:29.911Z,17.62
2022-10-30T11:24:34.276Z,17.67
2022-10-30T11:25:38.642Z,17.73
2022-10-30T11:26:43.130Z,17.78
2022-10-30T11:27:47.499Z,17.84
2022-10-30T11:28:51.843Z,17.90
2022-10-30T11:29:56.325Z,17.96
2022-10-30T11:31:00.694Z,18.00
2022-10-30T11:32:05.205Z,18.04
2022-10-30T11:33:09.639Z,18.08
2022-10-30T11:34:14.008Z,18.13
2022-10-30T11:35:18.483Z,18.18
2022-10-30T11:36:22.924Z,18.21
2022-10-30T11:37:27.383Z,18.24
2022-10-30T11:38:31.709Z,18.27
2022-10-30T11:39:36.083Z,18.30
2022-10-30T11:40:40.499Z,18.34
2022-10-30T11:41:44.870Z,18.36
2022-10-30T11:42:49.341Z,18.39
2022-10-30T11:43:53.592Z,18.43
2022-10-30T11:44:58.123Z,18.46
2022-10-30T11:46:02.473Z,18.51
2022-10-30T11:47:06.998Z,18.52
2022-10-30T11:48:13.791Z,18.53
2022-10-30T11:49:15.765Z,18.52
2022-10-30T11:50:20.227Z,18.51
2022-10-30T11:51:24.598Z,18.50
2022-10-30T11:52:28.917Z,18.48
2022-10-30T11:53:33.353Z,18.47
2022-10-30T11:54:37.715Z,18.47
2022-10-30T11:55:42.145Z,18.47
2022-10-30T11:56:46.606Z,18.50
2022-10-30T11:57:51.033Z,18.53
2022-10-30T11:58:55.479Z,18.55
2022-10-30T12:00:04.943Z,18.59
2022-10-30T12:01:04.230Z,18.62
2022-10-30T12:02:08.926Z,18.67
2022-10-30T12:03:13.213Z,18.71
2022-10-30T12:04:17.613Z,18.75
2022-10-30T12:05:22.065Z,18.78
2022-10-30T12:06:26.391Z,18.81
2022-10-30T12:07:30.916Z,18.82
2022-10-30T12:08:35.285Z,18.85
2022-10-30T12:09:39.628Z,18.89
2022-10-30T12:10:44.142Z,18.91
2022-10-30T12:11:48.591Z,18.95
2022-10-30T12:12:53.011Z,19.00
2022-10-30T12:13:57.364Z,19.07
2022-10-30T12:15:01.873Z,19.13
2022-10-30T12:16:06.162Z,19.20
2022-10-30T12:17:10.594Z,19.27
2022-10-30T12:18:15.006Z,19.36
2022-10-30T12:19:19.492Z,19.45
2022-10-30T12:20:23.919Z,19.55
2022-10-30T12:21:28.411Z,19.64
2022-10-30T12:22:32.762Z,19.74
2022-10-30T12:23:40.272Z,19.84
2022-10-30T12:24:43.764Z,19.90
2022-10-30T12:25:48.186Z,19.98
2022-10-30T12:26:52.581Z,20.08
2022-10-30T12:27:56.990Z,20.15
2022-10-30T12:29:01.496Z,20.17
2022-10-30T12:30:09.902Z,20.23
2022-10-30T12:31:10.347Z,20.30
2022-10-30T12:32:14.704Z,20.37
2022-10-30T12:33:19.172Z,20.41
2022-10-30T12:34:23.607Z,20.40
2022-10-30T12:35:27.983Z,20.38
2022-10-30T12:36:32.367Z,20.34
2022-10-30T12:37:36.763Z,20.34
2022-10-30T12:38:41.150Z,20.33
2022-10-30T12:39:45.524Z,20.36
2022-10-30T12:40:49.950Z,20.39
2022-10-30T12:41:54.462Z,20.42
2022-10-30T12:42:58.824Z,20.43
2022-10-30T12:44:03.339Z,20.47
2022-10-30T12:45:07.706Z,20.51
2022-10-30T12:46:12.096Z,20.51
2022-10-30T12:47:16.569Z,20.50
2022-10-30T12:48:20.915Z,20.49
2022-10-30T12:49:25.444Z,20.49
2022-10-30T12:50:29.817Z,20.49
2022-10-30T12:51:48.284Z,20.52
2022-10-30T12:52:51.701Z,20.54
2022-10-30T12:53:56.184Z,20.55
2022-10-30T12:55:00.557Z,20.55
2022-10-30T12:56:04.897Z,20.58
2022-10-30T12:57:09.294Z,20.60
2022-10-30T12:58:13.687Z,20.64
2022-10-30T12:59:18.076Z,20.68
2022-10-30T13:00:22.481Z,20.69
2022-10-30T13:01:27.208Z,20.71
2022-10-30T13:02:31.393Z,20.66
2022-10-30T13:03:35.713Z,20.53
2022-10-30T13:04:40.136Z,20.56
2022-10-30T13:05:44.811Z,20.53
2022-10-30T13:06:49.145Z,20.53
2022-10-30T13:07:53.521Z,20.50
2022-10-30T13:08:57.907Z,20.56
2022-10-30T13:10:02.307Z,20.59
2022-10-30T13:11:06.817Z,20.60
2022-10-30T13:12:11.172Z,20.62
2022-10-30T13:13:15.565Z,20.60
2022-10-30T13:14:19.973Z,20.60
2022-10-30T13:15:24.426Z,20.60
2022-10-30T13:16:28.787Z,20.61
2022-10-30T13:17:33.225Z,20.64
2022-10-30T13:18:37.743Z,20.66
2022-10-30T13:19:42.204Z,20.66
2022-10-30T13:20:46.679Z,20.62
2022-10-30T13:21:51.174Z,20.40
2022-10-30T13:22:55.454Z,20.45
2022-10-30T13:23:59.857Z,20.54
2022-10-30T13:26:32.013Z,20.60
2022-10-30T13:27:36.363Z,20.59
2022-10-30T13:28:40.764Z,20.47
2022-10-30T13:29:45.143Z,20.38
2022-10-30T13:30:49.603Z,20.23
2022-10-30T13:31:53.942Z,20.18
2022-10-30T13:32:58.687Z,20.32
2022-10-30T13:34:02.756Z,20.36
2022-10-30T13:35:07.176Z,20.40
2022-10-30T13:36:11.564Z,20.38
2022-10-30T13:37:16.111Z,20.41
2022-10-30T13:38:20.394Z,20.44
2022-10-30T13:39:24.911Z,20.46
2022-10-30T13:40:29.255Z,20.48
2022-10-30T13:41:33.649Z,20.50
2022-10-30T13:42:38.167Z,20.53
2022-10-30T13:43:43.177Z,20.52
2022-10-30T13:44:46.945Z,20.50
2022-10-30T13:45:51.368Z,20.48
2022-10-30T13:46:55.809Z,20.49
2022-10-30T13:48:00.568Z,20.50
2022-10-30T13:49:04.644Z,20.50
2022-10-30T13:50:09.106Z,20.48
2022-10-30T13:51:13.470Z,20.44
2022-10-30T13:52:18.032Z,20.41